Portada
METAR-TAF:

METAR-TAF

Aeroports :

Teheran, Iran

latitud: 35-41N, longitud: 051-21E, altitud: 1204 m

Observació

L'informe es va fer fa 11 minuts, a les 21:00 UTC
Vent calma
Temperatura 28°C
Humitat 19%
Pressió 1012 hPa
Visibilitat 10 km o més
sense núvols per sota de 1500 mi sense presència de cumulonimbus.

METAR: OIII 142100Z 00000KT CAVOK 28/02 Q1011 A2988 NOSIG

Hora: 01:41 (21:11 UTC)

Pronòstic

L'informe es va fer fa 3 hores i 41 minuts, a les 17:30 UTC
Pronòstic vàlid del 14 a les 18 UTC al 15 a les 24 UTC
Vent 8 kt del Nord/Nord-Oest
Visibilitat 10 km o més
sense núvols per sota de 1500 mi sense presència de cumulonimbus.
Evolucionant progressivament
l' 15 a les 06 UTC al 15 a les 08 UTC
Vent 10 kt del Sud-Est
Evolucionant progressivament
l' 15 a les 18 UTC al 15 a les 20 UTC
Vent 6 kt del Nord/Nord-Oest

TAF: OIII 141730Z 1418/1524 33004MPS CAVOK BECMG 1506/1508 14005MPS BECMG 1518/1520 33003MPS

Observacions i pronòstics meteorològics de més de 4000 aeroports (METAR i TAF).

Les estacions disponibles són els punts grocs i vermells al mapa.

Posi el ratolí al punt desitjat per veure el nom de l'estació.

Feu clic per veure les observacions i els pronòstics meteorològics.

Per canviar el mapa: feu clic els botons verds amb una creu de color negre per apropar; al botó verd amb un guió per allunyar la imatge; o en les fletxes verdes per a mapes adjacents.


METAR-TAF: